createdAt,value
2019-04-14T00:02:33.646Z,1.66
2019-04-14T00:05:03.886Z,1.65
2019-04-14T00:07:31.892Z,1.64
2019-04-14T00:09:58.983Z,1.64
2019-04-14T00:12:27.255Z,1.65
2019-04-14T00:14:55.450Z,1.66
2019-04-14T00:17:23.588Z,1.63
2019-04-14T00:19:50.875Z,1.61
2019-04-14T00:22:18.404Z,1.62
2019-04-14T00:24:46.639Z,1.62
2019-04-14T00:27:14.875Z,1.59
2019-04-14T00:29:42.041Z,1.58
2019-04-14T00:32:09.550Z,1.60
2019-04-14T00:34:50.816Z,1.59
2019-04-14T00:37:46.723Z,1.60
2019-04-14T00:40:27.087Z,1.62
2019-04-14T00:43:19.975Z,1.66
2019-04-14T00:45:55.076Z,1.73
2019-04-14T00:48:24.287Z,1.82
2019-04-14T00:50:52.411Z,1.89
2019-04-14T00:53:20.567Z,1.94
2019-04-14T00:55:48.921Z,2.00
2019-04-14T00:58:17.066Z,2.03
2019-04-14T01:00:45.130Z,2.09
2019-04-14T01:03:13.375Z,2.17
2019-04-14T01:05:41.516Z,2.21
2019-04-14T01:08:09.652Z,2.29
2019-04-14T01:10:39.007Z,2.36
2019-04-14T01:13:11.119Z,2.42
2019-04-14T01:15:49.224Z,2.46
2019-04-14T01:18:07.915Z,2.54
2019-04-14T01:20:36.305Z,2.60
2019-04-14T01:23:04.194Z,2.64
2019-04-14T01:25:36.774Z,2.69
2019-04-14T01:28:04.662Z,2.73
2019-04-14T01:30:37.604Z,2.76
2019-04-14T01:33:05.432Z,2.80
2019-04-14T01:35:33.486Z,2.83
2019-04-14T01:38:01.624Z,2.82
2019-04-14T01:40:29.278Z,2.87
2019-04-14T01:42:57.310Z,2.85
2019-04-14T01:45:25.346Z,2.89
2019-04-14T01:47:53.349Z,2.88
2019-04-14T01:50:23.533Z,2.92
2019-04-14T01:52:57.306Z,2.94
2019-04-14T01:55:50.496Z,2.99
2019-04-14T01:58:20.752Z,3.00
2019-04-14T02:00:55.401Z,3.03
2019-04-14T02:03:23.778Z,3.07
2019-04-14T02:05:51.712Z,3.10
2019-04-14T02:08:19.819Z,3.11
2019-04-14T02:10:47.863Z,3.08
2019-04-14T02:13:15.705Z,3.06
2019-04-14T02:15:44.161Z,3.04
2019-04-14T02:18:12.133Z,3.00
2019-04-14T02:20:40.785Z,2.92
2019-04-14T02:23:08.264Z,2.83
2019-04-14T02:25:36.067Z,2.74
2019-04-14T02:28:03.133Z,2.62
2019-04-14T02:30:36.208Z,2.55
2019-04-14T02:33:32.147Z,2.47
2019-04-14T02:36:06.317Z,2.49
2019-04-14T02:38:36.065Z,2.53
2019-04-14T02:41:13.703Z,2.58
2019-04-14T02:43:25.796Z,2.63
2019-04-14T02:45:50.490Z,2.62
2019-04-14T02:50:51.497Z,2.48
2019-04-14T02:55:48.948Z,2.34
2019-04-14T02:58:20.263Z,2.28
2019-04-14T03:03:15.994Z,2.23
2019-04-14T03:05:45.041Z,2.24
2019-04-14T03:08:11.414Z,2.20
2019-04-14T03:10:41.371Z,2.14
2019-04-14T03:13:13.090Z,2.08
2019-04-14T03:18:33.934Z,1.94
2019-04-14T03:21:13.449Z,1.84
2019-04-14T03:23:51.894Z,1.78
2019-04-14T03:26:21.238Z,1.71
2019-04-14T03:28:51.707Z,1.65
2019-04-14T03:31:53.684Z,1.59
2019-04-14T03:34:17.583Z,1.55
2019-04-14T03:37:11.398Z,1.51
2019-04-14T03:43:41.787Z,1.33
2019-04-14T03:51:16.773Z,1.24
2019-04-14T03:53:42.835Z,1.28
2019-04-14T03:56:24.529Z,1.31
2019-04-14T03:58:51.641Z,1.32
2019-04-14T04:01:19.333Z,1.29
2019-04-14T04:03:46.485Z,1.25
2019-04-14T04:06:13.951Z,1.22
2019-04-14T04:08:42.021Z,1.16
2019-04-14T04:11:10.455Z,1.09
2019-04-14T04:13:37.683Z,1.06
2019-04-14T04:16:13.908Z,1.02
2019-04-14T04:18:50.939Z,1.01
2019-04-14T04:21:35.620Z,0.98
2019-04-14T04:24:35.142Z,0.94
2019-04-14T04:27:24.647Z,0.89
2019-04-14T04:30:14.413Z,0.83
2019-04-14T04:32:51.916Z,0.79
2019-04-14T04:35:30.340Z,0.73
2019-04-14T04:38:18.103Z,0.66
2019-04-14T04:40:46.138Z,0.58
2019-04-14T04:43:13.226Z,0.50
2019-04-14T04:45:40.890Z,0.45
2019-04-14T04:48:08.946Z,0.42
2019-04-14T04:50:36.852Z,0.39
2019-04-14T04:53:04.805Z,0.35
2019-04-14T04:55:32.903Z,0.37
2019-04-14T04:58:01.267Z,0.38
2019-04-14T05:00:28.781Z,0.41
2019-04-14T05:02:57.061Z,0.44
2019-04-14T05:06:00.426Z,0.49
2019-04-14T05:08:28.388Z,0.54
2019-04-14T05:11:05.459Z,0.57
2019-04-14T05:13:36.054Z,0.60
2019-04-14T05:16:04.185Z,0.63
2019-04-14T05:18:31.390Z,0.67
2019-04-14T05:20:59.518Z,0.69
2019-04-14T05:23:27.777Z,0.71
2019-04-14T05:25:55.938Z,0.77
2019-04-14T05:28:24.398Z,0.82
2019-04-14T05:30:52.541Z,0.90
2019-04-14T05:33:20.723Z,0.98
2019-04-14T05:35:48.875Z,1.04
2019-04-14T05:38:16.937Z,1.10
2019-04-14T05:40:45.076Z,1.16
2019-04-14T05:43:13.391Z,1.22
2019-04-14T05:45:41.649Z,1.26
2019-04-14T05:48:09.743Z,1.32
2019-04-14T05:50:37.936Z,1.36
2019-04-14T05:53:06.415Z,1.43
2019-04-14T05:55:35.140Z,1.55
2019-04-14T05:58:03.520Z,1.68
2019-04-14T06:00:31.986Z,1.80
2019-04-14T06:02:59.498Z,1.89
2019-04-14T06:05:27.487Z,1.97
2019-04-14T06:07:55.597Z,2.07
2019-04-14T06:10:22.759Z,2.22
2019-04-14T06:12:49.868Z,2.40
2019-04-14T06:15:16.907Z,2.54
2019-04-14T06:17:44.276Z,2.63
2019-04-14T06:20:17.114Z,2.68
2019-04-14T06:22:44.423Z,2.75
2019-04-14T06:25:11.503Z,2.83
2019-04-14T06:27:44.397Z,2.92
2019-04-14T06:30:34.158Z,2.99
2019-04-14T06:33:06.637Z,3.09
2019-04-14T06:35:47.389Z,3.24
2019-04-14T06:38:39.866Z,3.39
2019-04-14T06:41:24.999Z,3.52
2019-04-14T06:43:52.042Z,3.72
2019-04-14T06:46:19.116Z,3.80
2019-04-14T06:48:46.192Z,3.88
2019-04-14T06:51:13.235Z,3.96
2019-04-14T06:53:40.283Z,4.01
2019-04-14T06:56:08.030Z,4.17
2019-04-14T06:58:35.099Z,4.27
2019-04-14T07:01:02.329Z,4.40
2019-04-14T07:03:29.674Z,4.57
2019-04-14T07:05:56.735Z,4.78
2019-04-14T07:08:23.798Z,4.91
2019-04-14T07:10:50.900Z,4.98
2019-04-14T07:13:19.679Z,5.00
2019-04-14T07:15:46.887Z,5.05
2019-04-14T07:18:13.955Z,5.14
2019-04-14T07:20:41.026Z,5.20
2019-04-14T07:23:08.121Z,5.15
2019-04-14T07:25:35.203Z,5.03
2019-04-14T07:28:02.288Z,5.04
2019-04-14T07:30:44.504Z,5.05
2019-04-14T07:33:37.118Z,5.14
2019-04-14T07:36:19.910Z,5.34
2019-04-14T07:38:55.058Z,5.43
2019-04-14T07:41:30.367Z,5.58
2019-04-14T07:44:01.968Z,5.75
2019-04-14T07:46:41.689Z,5.81
2019-04-14T07:49:28.373Z,5.87
2019-04-14T07:52:15.002Z,5.91
2019-04-14T07:54:51.919Z,5.95
2019-04-14T07:57:37.305Z,6.01
2019-04-14T08:00:23.729Z,6.06
2019-04-14T08:02:54.765Z,6.23
2019-04-14T08:05:27.373Z,6.33
2019-04-14T08:07:54.447Z,6.49
2019-04-14T08:10:21.566Z,6.56
2019-04-14T08:12:48.674Z,6.65
2019-04-14T08:15:15.877Z,6.85
2019-04-14T08:17:43.717Z,6.88
2019-04-14T08:20:26.473Z,6.90
2019-04-14T08:22:43.055Z,6.97
2019-04-14T08:25:10.101Z,6.88
2019-04-14T08:27:37.223Z,6.85
2019-04-14T08:30:05.300Z,6.71
2019-04-14T08:32:32.378Z,6.76
2019-04-14T08:34:59.477Z,6.76
2019-04-14T08:37:26.619Z,6.70
2019-04-14T08:39:53.677Z,6.67
2019-04-14T08:42:38.036Z,6.68
2019-04-14T08:45:31.266Z,6.66
2019-04-14T08:48:35.912Z,6.74
2019-04-14T08:51:11.502Z,6.72
2019-04-14T08:53:51.475Z,6.91
2019-04-14T08:56:40.916Z,7.01
2019-04-14T08:59:36.722Z,7.11
2019-04-14T09:02:25.683Z,7.24
2019-04-14T09:05:12.381Z,7.39
2019-04-14T09:07:52.889Z,7.43
2019-04-14T09:10:26.388Z,7.51
2019-04-14T09:12:55.110Z,7.45
2019-04-14T09:15:22.184Z,7.49
2019-04-14T09:17:49.276Z,7.55
2019-04-14T09:20:16.332Z,7.61
2019-04-14T09:22:43.410Z,7.63
2019-04-14T09:25:10.515Z,7.68
2019-04-14T09:27:37.628Z,7.77
2019-04-14T09:30:05.315Z,7.70
2019-04-14T09:32:32.415Z,7.76
2019-04-14T09:34:59.458Z,7.94
2019-04-14T09:37:26.536Z,8.08
2019-04-14T09:39:53.684Z,8.14
2019-04-14T09:42:20.743Z,8.24
2019-04-14T09:44:47.794Z,8.28
2019-04-14T09:47:14.893Z,8.31
2019-04-14T09:49:42.303Z,8.39
2019-04-14T09:52:09.385Z,8.35
2019-04-14T09:54:43.962Z,8.49
2019-04-14T09:57:11.072Z,8.63
2019-04-14T09:59:38.137Z,8.76
2019-04-14T10:02:05.592Z,8.81
2019-04-14T10:04:32.767Z,8.87
2019-04-14T10:06:59.859Z,9.09
2019-04-14T10:09:27.161Z,9.25
2019-04-14T10:11:56.423Z,9.29
2019-04-14T10:14:23.291Z,9.26
2019-04-14T10:16:50.368Z,9.32
2019-04-14T10:19:33.400Z,9.40
2019-04-14T10:22:00.504Z,9.45
2019-04-14T10:24:27.627Z,9.74
2019-04-14T10:26:54.700Z,9.74
2019-04-14T10:29:21.803Z,9.72
2019-04-14T10:31:48.878Z,9.68
2019-04-14T10:34:15.939Z,9.71
2019-04-14T10:36:43.278Z,9.73
2019-04-14T10:39:10.343Z,9.95
2019-04-14T10:41:37.405Z,9.67
2019-04-14T10:44:04.506Z,9.65
2019-04-14T10:46:31.600Z,9.59
2019-04-14T10:48:58.710Z,9.58
2019-04-14T10:51:30.244Z,9.78
2019-04-14T10:53:54.759Z,9.79
2019-04-14T10:56:21.842Z,9.89
2019-04-14T10:58:48.952Z,10.07
2019-04-14T11:01:16.146Z,10.25
2019-04-14T11:03:43.491Z,10.18
2019-04-14T11:06:24.913Z,10.21
2019-04-14T11:08:52.049Z,10.25
2019-04-14T11:11:19.143Z,10.39
2019-04-14T11:13:46.244Z,10.59
2019-04-14T11:16:13.697Z,10.54
2019-04-14T11:18:46.126Z,10.53
2019-04-14T11:21:13.504Z,10.55
2019-04-14T11:23:40.999Z,10.67
2019-04-14T11:26:08.064Z,10.83
2019-04-14T11:28:35.134Z,11.02
2019-04-14T11:31:02.182Z,11.01
2019-04-14T11:33:34.648Z,11.14
2019-04-14T11:36:30.043Z,11.21
2019-04-14T11:39:09.073Z,11.32
2019-04-14T11:41:36.300Z,11.41
2019-04-14T11:44:03.660Z,11.48
2019-04-14T11:46:31.032Z,11.60
2019-04-14T11:48:58.110Z,11.75
2019-04-14T11:51:25.499Z,11.74
2019-04-14T11:53:52.613Z,11.71
2019-04-14T11:56:19.687Z,11.77
2019-04-14T11:58:46.788Z,11.76
2019-04-14T12:01:31.892Z,11.97
2019-04-14T12:04:14.152Z,12.17
2019-04-14T12:07:18.935Z,12.48
2019-04-14T12:09:50.791Z,12.57
2019-04-14T12:12:17.832Z,12.78
2019-04-14T12:14:44.914Z,13.00
2019-04-14T12:17:11.991Z,13.08
2019-04-14T12:19:39.063Z,13.22
2019-04-14T12:22:08.633Z,13.32
2019-04-14T12:24:35.135Z,13.59
2019-04-14T12:27:06.957Z,13.65
2019-04-14T12:29:34.786Z,13.73
2019-04-14T12:32:03.874Z,13.86
2019-04-14T12:34:31.041Z,13.92
2019-04-14T12:36:58.131Z,14.22
2019-04-14T12:39:25.296Z,14.76
2019-04-14T12:42:05.093Z,15.31
2019-04-14T12:44:50.306Z,15.65
2019-04-14T12:47:40.128Z,15.75
2019-04-14T12:50:10.270Z,15.54
2019-04-14T12:52:37.343Z,15.40
2019-04-14T12:55:04.854Z,14.86
2019-04-14T12:57:34.369Z,15.11
2019-04-14T13:00:01.491Z,15.49
2019-04-14T13:02:31.406Z,15.91
2019-04-14T13:04:58.423Z,15.99
2019-04-14T13:07:25.500Z,15.32
2019-04-14T13:09:52.542Z,15.30
2019-04-14T13:12:19.823Z,15.42
2019-04-14T13:14:47.071Z,15.91
2019-04-14T13:17:14.146Z,16.22
2019-04-14T13:19:41.463Z,16.17
2019-04-14T13:22:09.543Z,15.96
2019-04-14T13:24:36.583Z,15.79
2019-04-14T13:27:03.886Z,15.75
2019-04-14T13:29:30.926Z,15.89
2019-04-14T13:31:58.066Z,16.15
2019-04-14T13:34:25.156Z,16.49
2019-04-14T13:36:52.231Z,16.39
2019-04-14T13:39:19.352Z,15.84
2019-04-14T13:41:46.458Z,14.93
2019-04-14T13:44:13.513Z,14.71
2019-04-14T13:46:40.670Z,14.76
2019-04-14T13:49:07.778Z,15.06
2019-04-14T13:51:34.830Z,15.27
2019-04-14T13:54:02.155Z,15.31
2019-04-14T13:56:29.234Z,15.52
2019-04-14T13:58:56.276Z,15.83
2019-04-14T14:01:23.365Z,16.24
2019-04-14T14:03:50.488Z,16.20
2019-04-14T14:06:17.516Z,15.94
2019-04-14T14:08:44.555Z,15.71
2019-04-14T14:11:39.923Z,15.64
2019-04-14T14:14:26.580Z,15.67
2019-04-14T14:17:22.347Z,15.32
2019-04-14T14:20:20.959Z,15.25
2019-04-14T14:22:59.886Z,15.11
2019-04-14T14:25:31.838Z,15.27
2019-04-14T14:27:58.915Z,15.27
2019-04-14T14:30:25.992Z,15.40
2019-04-14T14:32:53.068Z,15.36
2019-04-14T14:35:20.140Z,14.64
2019-04-14T14:37:47.242Z,13.78
2019-04-14T14:40:14.919Z,13.64
2019-04-14T14:42:42.003Z,13.74
2019-04-14T14:45:17.147Z,13.94
2019-04-14T14:47:50.469Z,14.13
2019-04-14T14:50:21.777Z,14.50
2019-04-14T14:52:49.026Z,14.70
2019-04-14T14:55:16.113Z,14.79
2019-04-14T14:57:43.223Z,14.95
2019-04-14T15:00:30.479Z,14.72
2019-04-14T15:02:57.647Z,14.57
2019-04-14T15:05:24.726Z,14.60
2019-04-14T15:07:51.811Z,14.46
2019-04-14T15:10:18.924Z,13.95
2019-04-14T15:12:46.013Z,13.59
2019-04-14T15:15:13.211Z,13.62
2019-04-14T15:17:40.371Z,13.78
2019-04-14T15:20:07.541Z,13.92
2019-04-14T15:22:34.619Z,13.90
2019-04-14T15:25:01.703Z,13.93
2019-04-14T15:27:28.764Z,13.88
2019-04-14T15:29:55.902Z,13.78
2019-04-14T15:32:22.976Z,13.83
2019-04-14T15:34:50.061Z,14.02
2019-04-14T15:37:17.144Z,14.02
2019-04-14T15:39:44.268Z,13.58
2019-04-14T15:42:11.370Z,13.27
2019-04-14T15:44:38.504Z,13.33
2019-04-14T15:47:05.677Z,13.53
2019-04-14T15:49:32.795Z,13.69
2019-04-14T15:51:59.917Z,13.79
2019-04-14T15:54:27.024Z,13.81
2019-04-14T15:57:10.563Z,13.66
2019-04-14T16:00:02.149Z,13.54
2019-04-14T16:02:34.230Z,13.31
2019-04-14T16:05:17.530Z,12.88
2019-04-14T16:08:07.052Z,12.59
2019-04-14T16:11:02.677Z,12.54
2019-04-14T16:13:33.544Z,12.79
2019-04-14T16:16:10.209Z,12.93
2019-04-14T16:19:12.783Z,13.00
2019-04-14T16:21:39.890Z,13.23
2019-04-14T16:24:07.203Z,13.18
2019-04-14T16:27:02.919Z,12.93
2019-04-14T16:29:35.226Z,12.71
2019-04-14T16:32:27.698Z,12.31
2019-04-14T16:35:05.181Z,12.02
2019-04-14T16:37:32.267Z,11.99
2019-04-14T16:39:59.312Z,12.06
2019-04-14T16:42:26.386Z,12.24
2019-04-14T16:44:53.579Z,12.30
2019-04-14T16:47:20.923Z,12.41
2019-04-14T16:49:47.977Z,12.55
2019-04-14T16:52:38.340Z,12.47
2019-04-14T16:55:15.423Z,12.39
2019-04-14T16:58:07.967Z,12.29
2019-04-14T17:00:37.871Z,12.02
2019-04-14T17:03:04.962Z,11.72
2019-04-14T17:05:32.045Z,11.51
2019-04-14T17:07:59.100Z,11.48
2019-04-14T17:10:26.209Z,11.45
2019-04-14T17:12:53.444Z,11.40
2019-04-14T17:16:02.285Z,11.42
2019-04-14T17:18:43.332Z,11.40
2019-04-14T17:21:35.881Z,11.25
2019-04-14T17:24:22.522Z,11.12
2019-04-14T17:26:57.035Z,10.98
2019-04-14T17:29:43.680Z,10.83
2019-04-14T17:32:30.349Z,10.81
2019-04-14T17:35:07.282Z,10.64
2019-04-14T17:37:48.007Z,10.53
2019-04-14T17:40:37.324Z,10.47
2019-04-14T17:43:08.998Z,10.45
2019-04-14T17:46:04.531Z,10.46
2019-04-14T17:49:00.258Z,10.41
2019-04-14T17:51:35.645Z,10.29
2019-04-14T17:54:13.362Z,10.12
2019-04-14T17:56:49.260Z,10.00
2019-04-14T17:59:29.765Z,9.85
2019-04-14T18:02:01.149Z,9.72
2019-04-14T18:04:50.718Z,9.62
2019-04-14T18:07:21.255Z,9.58
2019-04-14T18:10:13.681Z,9.42
2019-04-14T18:12:56.960Z,9.37
2019-04-14T18:15:45.505Z,9.32
2019-04-14T18:18:35.042Z,9.26
2019-04-14T18:21:05.102Z,9.19
2019-04-14T18:23:32.364Z,9.10
2019-04-14T18:25:59.534Z,9.04
2019-04-14T18:28:44.114Z,8.99
2019-04-14T18:31:33.514Z,8.90
2019-04-14T18:34:29.068Z,8.80
2019-04-14T18:36:59.451Z,8.77
2019-04-14T18:39:44.782Z,8.70
2019-04-14T18:42:31.446Z,8.71
2019-04-14T18:45:14.042Z,8.65
2019-04-14T18:47:46.547Z,8.58
2019-04-14T18:50:19.352Z,8.48
2019-04-14T18:52:59.976Z,8.43
2019-04-14T18:55:52.830Z,8.40
2019-04-14T18:58:39.537Z,8.35
2019-04-14T19:01:15.606Z,8.27
2019-04-14T19:03:42.942Z,8.22
2019-04-14T19:06:10.237Z,8.21
2019-04-14T19:08:37.330Z,8.11
2019-04-14T19:11:22.926Z,8.03
2019-04-14T19:13:51.604Z,7.98
2019-04-14T19:16:39.919Z,7.90
2019-04-14T19:19:07.148Z,7.84
2019-04-14T19:21:36.634Z,7.83
2019-04-14T19:24:03.767Z,7.84
2019-04-14T19:26:30.971Z,7.89
2019-04-14T19:28:58.030Z,7.90
2019-04-14T19:31:25.603Z,7.93
2019-04-14T19:33:53.323Z,7.98
2019-04-14T19:36:20.351Z,8.00
2019-04-14T19:38:47.473Z,8.03
2019-04-14T19:41:14.570Z,8.05
2019-04-14T19:43:41.696Z,8.06
2019-04-14T19:46:08.843Z,8.09
2019-04-14T19:48:36.245Z,8.09
2019-04-14T19:51:03.338Z,8.12
2019-04-14T19:53:36.184Z,8.10
2019-04-14T19:56:03.362Z,8.11
2019-04-14T19:58:30.494Z,8.07
2019-04-14T20:00:58.001Z,8.07
2019-04-14T20:03:25.127Z,8.05
2019-04-14T20:05:52.255Z,8.05
2019-04-14T20:08:19.457Z,8.07
2019-04-14T20:10:46.747Z,8.11
2019-04-14T20:13:13.820Z,8.12
2019-04-14T20:15:55.482Z,8.07
2019-04-14T20:18:39.825Z,8.08
2019-04-14T20:21:20.577Z,8.09
2019-04-14T20:24:19.041Z,8.11
2019-04-14T20:26:54.360Z,8.10
2019-04-14T20:29:25.024Z,8.14
2019-04-14T20:31:59.293Z,8.11
2019-04-14T20:34:26.445Z,8.12
2019-04-14T20:36:53.683Z,8.11
2019-04-14T20:39:21.250Z,8.12
2019-04-14T20:41:48.573Z,8.12
2019-04-14T20:44:15.749Z,8.11
2019-04-14T20:46:45.066Z,8.12
2019-04-14T20:49:12.439Z,8.13
2019-04-14T20:51:39.582Z,8.11
2019-04-14T20:54:06.758Z,8.08
2019-04-14T20:56:35.032Z,8.07
2019-04-14T20:59:33.012Z,8.08
2019-04-14T21:02:18.420Z,8.06
2019-04-14T21:04:53.123Z,8.03
2019-04-14T21:07:39.811Z,7.98
2019-04-14T21:10:29.429Z,7.95
2019-04-14T21:13:14.695Z,7.94
2019-04-14T21:15:46.256Z,7.94
2019-04-14T21:18:31.181Z,7.94
2019-04-14T21:21:08.216Z,7.93
2019-04-14T21:23:54.867Z,7.89
2019-04-14T21:26:49.188Z,7.88
2019-04-14T21:29:34.456Z,7.86
2019-04-14T21:32:10.177Z,7.87
2019-04-14T21:35:23.138Z,7.86
2019-04-14T21:37:57.427Z,7.83
2019-04-14T21:40:42.705Z,7.79
2019-04-14T21:43:09.898Z,7.77
2019-04-14T21:45:37.007Z,7.73
2019-04-14T21:48:04.152Z,7.74
2019-04-14T21:50:31.350Z,7.69
2019-04-14T21:52:58.657Z,7.69
2019-04-14T21:55:25.782Z,7.63
2019-04-14T21:58:01.068Z,7.55
2019-04-14T22:01:24.660Z,7.49
2019-04-14T22:04:15.254Z,7.42
2019-04-14T22:06:43.944Z,7.20
2019-04-14T22:09:17.479Z,7.11
2019-04-14T22:11:44.771Z,6.96
2019-04-14T22:14:11.861Z,6.88
2019-04-14T22:16:38.953Z,6.73
2019-04-14T22:19:24.555Z,6.66
2019-04-14T22:21:51.602Z,6.58
2019-04-14T22:24:18.666Z,6.46
2019-04-14T22:26:45.763Z,6.35
2019-04-14T22:29:12.824Z,6.28
2019-04-14T22:31:39.916Z,6.23
2019-04-14T22:34:06.997Z,6.16
2019-04-14T22:36:34.097Z,6.06
2019-04-14T22:39:01.510Z,5.97
2019-04-14T22:41:33.375Z,5.90
2019-04-14T22:44:00.499Z,5.82
2019-04-14T22:46:27.571Z,5.71
2019-04-14T22:48:54.655Z,5.67
2019-04-14T22:51:21.988Z,5.62
2019-04-14T22:53:49.131Z,5.58
2019-04-14T22:56:16.225Z,5.50
2019-04-14T22:58:43.451Z,5.42
2019-04-14T23:01:23.199Z,5.36
2019-04-14T23:04:09.854Z,5.29
2019-04-14T23:07:05.421Z,5.23
2019-04-14T23:09:49.160Z,5.17
2019-04-14T23:12:37.315Z,5.08
2019-04-14T23:15:42.613Z,4.98
2019-04-14T23:18:29.273Z,4.88
2019-04-14T23:21:18.860Z,4.77
2019-04-14T23:24:03.661Z,4.68
2019-04-14T23:26:30.806Z,4.59
2019-04-14T23:28:59.011Z,4.49
2019-04-14T23:31:26.164Z,4.48
2019-04-14T23:33:53.210Z,4.56
2019-04-14T23:36:20.273Z,4.58
2019-04-14T23:38:47.359Z,4.50
2019-04-14T23:41:14.558Z,4.48
2019-04-14T23:43:41.605Z,4.51
2019-04-14T23:46:12.909Z,4.53
2019-04-14T23:48:39.987Z,4.48
2019-04-14T23:51:14.320Z,4.45
2019-04-14T23:53:41.374Z,4.33
2019-04-14T23:56:08.450Z,4.21
2019-04-14T23:58:35.560Z,4.19
